sensor_id;sensor_type;location;lat;lon;timestamp;P1;durP1;ratioP1;P2;durP2;ratioP2
40284;SDS011;25997;50.214;19.354;2024-02-04T00:00:12;42.05;;;33.88;;
40284;SDS011;25997;50.214;19.354;2024-02-04T00:03:15;119.75;;;82.50;;
40284;SDS011;25997;50.214;19.354;2024-02-04T00:06:18;73.38;;;53.78;;
40284;SDS011;25997;50.214;19.354;2024-02-04T00:09:20;25.92;;;20.55;;
40284;SDS011;25997;50.214;19.354;2024-02-04T00:12:23;53.15;;;42.83;;
40284;SDS011;25997;50.214;19.354;2024-02-04T00:15:27;85.70;;;61.03;;
40284;SDS011;25997;50.214;19.354;2024-02-04T00:18:29;33.38;;;28.98;;
40284;SDS011;25997;50.214;19.354;2024-02-04T00:21:31;18.80;;;12.48;;
40284;SDS011;25997;50.214;19.354;2024-02-04T00:24:34;14.18;;;10.18;;
40284;SDS011;25997;50.214;19.354;2024-02-04T00:27:36;58.63;;;45.33;;
40284;SDS011;25997;50.214;19.354;2024-02-04T00:30:40;165.15;;;111.63;;
40284;SDS011;25997;50.214;19.354;2024-02-04T00:33:43;26.67;;;22.40;;
40284;SDS011;25997;50.214;19.354;2024-02-04T00:36:45;17.08;;;11.48;;
40284;SDS011;25997;50.214;19.354;2024-02-04T00:39:47;13.93;;;9.50;;
40284;SDS011;25997;50.214;19.354;2024-02-04T00:42:50;100.05;;;68.40;;
40284;SDS011;25997;50.214;19.354;2024-02-04T00:45:53;39.22;;;33.58;;
40284;SDS011;25997;50.214;19.354;2024-02-04T00:48:57;8.82;;;7.90;;
40284;SDS011;25997;50.214;19.354;2024-02-04T00:51:59;11.02;;;8.38;;
40284;SDS011;25997;50.214;19.354;2024-02-04T00:55:01;10.32;;;9.15;;
40284;SDS011;25997;50.214;19.354;2024-02-04T00:58:04;11.07;;;8.68;;
40284;SDS011;25997;50.214;19.354;2024-02-04T01:01:07;11.98;;;8.80;;
40284;SDS011;25997;50.214;19.354;2024-02-04T01:04:11;12.25;;;8.57;;
40284;SDS011;25997;50.214;19.354;2024-02-04T01:07:14;11.57;;;8.05;;
40284;SDS011;25997;50.214;19.354;2024-02-04T01:10:16;9.40;;;7.78;;
40284;SDS011;25997;50.214;19.354;2024-02-04T01:13:18;12.63;;;9.00;;
40284;SDS011;25997;50.214;19.354;2024-02-04T01:16:22;13.65;;;9.27;;
40284;SDS011;25997;50.214;19.354;2024-02-04T01:19:24;11.98;;;9.88;;
40284;SDS011;25997;50.214;19.354;2024-02-04T01:22:27;11.88;;;9.52;;
40284;SDS011;25997;50.214;19.354;2024-02-04T01:25:29;62.75;;;50.92;;
40284;SDS011;25997;50.214;19.354;2024-02-04T01:28:31;22.63;;;13.98;;
40284;SDS011;25997;50.214;19.354;2024-02-04T01:31:35;16.05;;;10.52;;
40284;SDS011;25997;50.214;19.354;2024-02-04T01:34:38;18.85;;;11.90;;
40284;SDS011;25997;50.214;19.354;2024-02-04T01:37:40;9.93;;;8.52;;
40284;SDS011;25997;50.214;19.354;2024-02-04T01:40:43;8.73;;;7.72;;
40284;SDS011;25997;50.214;19.354;2024-02-04T01:43:47;17.63;;;11.05;;
40284;SDS011;25997;50.214;19.354;2024-02-04T01:46:50;14.45;;;9.60;;
40284;SDS011;25997;50.214;19.354;2024-02-04T01:49:52;13.27;;;9.80;;
40284;SDS011;25997;50.214;19.354;2024-02-04T01:52:55;10.10;;;7.85;;
40284;SDS011;25997;50.214;19.354;2024-02-04T01:55:57;10.48;;;8.80;;
40284;SDS011;25997;50.214;19.354;2024-02-04T01:59:00;9.93;;;8.10;;
40284;SDS011;25997;50.214;19.354;2024-02-04T02:02:06;27.88;;;25.05;;
40284;SDS011;25997;50.214;19.354;2024-02-04T02:05:08;7.68;;;6.88;;
40284;SDS011;25997;50.214;19.354;2024-02-04T02:08:11;9.63;;;7.93;;
40284;SDS011;25997;50.214;19.354;2024-02-04T02:11:16;11.57;;;8.82;;
40284;SDS011;25997;50.214;19.354;2024-02-04T02:14:24;7.18;;;5.90;;
40284;SDS011;25997;50.214;19.354;2024-02-04T02:17:33;8.00;;;6.05;;
40284;SDS011;25997;50.214;19.354;2024-02-04T02:20:51;9.52;;;6.95;;
40284;SDS011;25997;50.214;19.354;2024-02-04T02:24:10;13.50;;;8.45;;
40284;SDS011;25997;50.214;19.354;2024-02-04T02:27:17;8.98;;;8.07;;
40284;SDS011;25997;50.214;19.354;2024-02-04T02:30:20;9.15;;;7.55;;
40284;SDS011;25997;50.214;19.354;2024-02-04T02:33:23;9.27;;;7.20;;
40284;SDS011;25997;50.214;19.354;2024-02-04T02:36:25;6.43;;;5.80;;
40284;SDS011;25997;50.214;19.354;2024-02-04T02:39:40;7.15;;;4.95;;
40284;SDS011;25997;50.214;19.354;2024-02-04T02:42:49;7.40;;;4.40;;
40284;SDS011;25997;50.214;19.354;2024-02-04T02:45:54;4.97;;;3.97;;
40284;SDS011;25997;50.214;19.354;2024-02-04T02:48:57;7.15;;;4.55;;
40284;SDS011;25997;50.214;19.354;2024-02-04T02:52:00;5.55;;;4.63;;
40284;SDS011;25997;50.214;19.354;2024-02-04T02:55:03;7.18;;;4.55;;
40284;SDS011;25997;50.214;19.354;2024-02-04T02:58:07;4.40;;;3.42;;
40284;SDS011;25997;50.214;19.354;2024-02-04T03:01:09;5.43;;;3.67;;
40284;SDS011;25997;50.214;19.354;2024-02-04T03:04:12;4.88;;;3.95;;
40284;SDS011;25997;50.214;19.354;2024-02-04T03:07:14;2.58;;;2.10;;
40284;SDS011;25997;50.214;19.354;2024-02-04T03:10:16;2.75;;;1.80;;
40284;SDS011;25997;50.214;19.354;2024-02-04T03:13:20;3.72;;;2.70;;
40284;SDS011;25997;50.214;19.354;2024-02-04T03:16:23;4.75;;;3.10;;
40284;SDS011;25997;50.214;19.354;2024-02-04T03:19:25;5.20;;;3.40;;
40284;SDS011;25997;50.214;19.354;2024-02-04T03:22:27;19.08;;;12.48;;
40284;SDS011;25997;50.214;19.354;2024-02-04T03:25:30;10.50;;;6.22;;
40284;SDS011;25997;50.214;19.354;2024-02-04T03:28:33;22.80;;;19.33;;
40284;SDS011;25997;50.214;19.354;2024-02-04T03:31:36;5.63;;;3.78;;
40284;SDS011;25997;50.214;19.354;2024-02-04T03:34:40;8.05;;;7.20;;
40284;SDS011;25997;50.214;19.354;2024-02-04T03:37:43;6.90;;;5.38;;
40284;SDS011;25997;50.214;19.354;2024-02-04T03:40:46;6.25;;;4.15;;
40284;SDS011;25997;50.214;19.354;2024-02-04T03:43:51;5.43;;;3.78;;
40284;SDS011;25997;50.214;19.354;2024-02-04T03:46:56;4.13;;;2.60;;
40284;SDS011;25997;50.214;19.354;2024-02-04T03:49:58;4.47;;;2.45;;
40284;SDS011;25997;50.214;19.354;2024-02-04T03:53:00;4.32;;;2.35;;
40284;SDS011;25997;50.214;19.354;2024-02-04T03:56:03;5.22;;;4.05;;
40284;SDS011;25997;50.214;19.354;2024-02-04T03:59:08;4.72;;;2.90;;
40284;SDS011;25997;50.214;19.354;2024-02-04T04:02:11;5.10;;;3.65;;
40284;SDS011;25997;50.214;19.354;2024-02-04T04:05:14;5.35;;;2.47;;
40284;SDS011;25997;50.214;19.354;2024-02-04T04:08:16;5.55;;;3.30;;
40284;SDS011;25997;50.214;19.354;2024-02-04T04:11:19;11.02;;;5.57;;
40284;SDS011;25997;50.214;19.354;2024-02-04T04:14:23;57.22;;;31.85;;
40284;SDS011;25997;50.214;19.354;2024-02-04T04:17:25;5.13;;;3.20;;
40284;SDS011;25997;50.214;19.354;2024-02-04T04:20:28;3.67;;;2.15;;
40284;SDS011;25997;50.214;19.354;2024-02-04T04:23:30;4.55;;;2.85;;
40284;SDS011;25997;50.214;19.354;2024-02-04T04:26:32;9.63;;;3.92;;
40284;SDS011;25997;50.214;19.354;2024-02-04T04:29:36;7.30;;;3.45;;
40284;SDS011;25997;50.214;19.354;2024-02-04T04:32:39;6.22;;;3.00;;
40284;SDS011;25997;50.214;19.354;2024-02-04T04:35:41;13.02;;;6.13;;
40284;SDS011;25997;50.214;19.354;2024-02-04T04:38:43;5.82;;;3.30;;
40284;SDS011;25997;50.214;19.354;2024-02-04T04:41:46;8.63;;;4.80;;
40284;SDS011;25997;50.214;19.354;2024-02-04T04:44:50;21.25;;;10.18;;
40284;SDS011;25997;50.214;19.354;2024-02-04T04:47:52;7.90;;;3.85;;
40284;SDS011;25997;50.214;19.354;2024-02-04T04:50:54;40.60;;;18.75;;
40284;SDS011;25997;50.214;19.354;2024-02-04T04:53:57;22.27;;;11.27;;
40284;SDS011;25997;50.214;19.354;2024-02-04T04:56:59;34.40;;;19.45;;
40284;SDS011;25997;50.214;19.354;2024-02-04T05:00:03;33.75;;;20.88;;
40284;SDS011;25997;50.214;19.354;2024-02-04T05:03:10;10.77;;;7.55;;
40284;SDS011;25997;50.214;19.354;2024-02-04T05:06:12;27.65;;;15.93;;
40284;SDS011;25997;50.214;19.354;2024-02-04T05:09:14;13.80;;;9.50;;
40284;SDS011;25997;50.214;19.354;2024-02-04T05:12:17;19.55;;;12.35;;
40284;SDS011;25997;50.214;19.354;2024-02-04T05:15:21;12.73;;;9.07;;
40284;SDS011;25997;50.214;19.354;2024-02-04T05:18:23;22.85;;;13.15;;
40284;SDS011;25997;50.214;19.354;2024-02-04T05:21:27;14.93;;;8.52;;
40284;SDS011;25997;50.214;19.354;2024-02-04T05:24:29;6.95;;;5.22;;
40284;SDS011;25997;50.214;19.354;2024-02-04T05:27:32;14.55;;;9.48;;
40284;SDS011;25997;50.214;19.354;2024-02-04T05:30:35;23.65;;;15.45;;
40284;SDS011;25997;50.214;19.354;2024-02-04T05:33:38;16.20;;;11.65;;
40284;SDS011;25997;50.214;19.354;2024-02-04T05:36:40;8.18;;;5.95;;
40284;SDS011;25997;50.214;19.354;2024-02-04T05:39:42;8.15;;;5.25;;
40284;SDS011;25997;50.214;19.354;2024-02-04T05:42:45;5.20;;;4.05;;
40284;SDS011;25997;50.214;19.354;2024-02-04T05:45:48;4.72;;;3.15;;
40284;SDS011;25997;50.214;19.354;2024-02-04T05:48:51;5.75;;;4.80;;
40284;SDS011;25997;50.214;19.354;2024-02-04T05:51:53;5.18;;;4.68;;
40284;SDS011;25997;50.214;19.354;2024-02-04T05:54:55;5.53;;;4.45;;
40284;SDS011;25997;50.214;19.354;2024-02-04T05:57:58;6.65;;;5.50;;
40284;SDS011;25997;50.214;19.354;2024-02-04T06:01:02;10.32;;;7.28;;
40284;SDS011;25997;50.214;19.354;2024-02-04T06:04:04;7.00;;;5.00;;
40284;SDS011;25997;50.214;19.354;2024-02-04T06:07:06;8.25;;;4.78;;
40284;SDS011;25997;50.214;19.354;2024-02-04T06:10:09;7.05;;;3.40;;
40284;SDS011;25997;50.214;19.354;2024-02-04T06:13:11;5.55;;;3.75;;
40284;SDS011;25997;50.214;19.354;2024-02-04T06:16:15;5.82;;;3.92;;
40284;SDS011;25997;50.214;19.354;2024-02-04T06:19:17;4.78;;;3.83;;
40284;SDS011;25997;50.214;19.354;2024-02-04T06:22:19;4.63;;;3.50;;
40284;SDS011;25997;50.214;19.354;2024-02-04T06:25:22;10.35;;;8.98;;
40284;SDS011;25997;50.214;19.354;2024-02-04T06:28:24;6.85;;;4.82;;
40284;SDS011;25997;50.214;19.354;2024-02-04T06:31:28;9.85;;;6.50;;
40284;SDS011;25997;50.214;19.354;2024-02-04T06:34:30;16.45;;;10.73;;
40284;SDS011;25997;50.214;19.354;2024-02-04T06:37:32;11.05;;;8.93;;
40284;SDS011;25997;50.214;19.354;2024-02-04T06:40:35;17.90;;;16.00;;
40284;SDS011;25997;50.214;19.354;2024-02-04T06:43:37;6.03;;;4.93;;
40284;SDS011;25997;50.214;19.354;2024-02-04T06:46:42;9.00;;;5.20;;
40284;SDS011;25997;50.214;19.354;2024-02-04T06:49:44;7.57;;;4.47;;
40284;SDS011;25997;50.214;19.354;2024-02-04T06:52:47;7.65;;;4.68;;
40284;SDS011;25997;50.214;19.354;2024-02-04T06:55:49;7.97;;;4.20;;
40284;SDS011;25997;50.214;19.354;2024-02-04T06:58:51;7.13;;;4.35;;
40284;SDS011;25997;50.214;19.354;2024-02-04T07:01:55;7.13;;;4.90;;
40284;SDS011;25997;50.214;19.354;2024-02-04T07:04:58;7.40;;;5.50;;
40284;SDS011;25997;50.214;19.354;2024-02-04T07:08:00;8.13;;;4.38;;
40284;SDS011;25997;50.214;19.354;2024-02-04T07:11:02;6.35;;;3.75;;
40284;SDS011;25997;50.214;19.354;2024-02-04T07:14:05;11.13;;;8.82;;
40284;SDS011;25997;50.214;19.354;2024-02-04T07:17:10;6.00;;;4.63;;
40284;SDS011;25997;50.214;19.354;2024-02-04T07:20:12;8.25;;;6.25;;
40284;SDS011;25997;50.214;19.354;2024-02-04T07:23:15;14.27;;;8.43;;
40284;SDS011;25997;50.214;19.354;2024-02-04T07:26:17;9.25;;;3.58;;
40284;SDS011;25997;50.214;19.354;2024-02-04T07:29:19;6.00;;;3.90;;
40284;SDS011;25997;50.214;19.354;2024-02-04T07:32:23;21.60;;;10.93;;
40284;SDS011;25997;50.214;19.354;2024-02-04T07:35:25;6.57;;;4.20;;
40284;SDS011;25997;50.214;19.354;2024-02-04T07:38:28;6.70;;;2.92;;
40284;SDS011;25997;50.214;19.354;2024-02-04T07:41:30;14.85;;;10.57;;
40284;SDS011;25997;50.214;19.354;2024-02-04T07:44:32;16.75;;;10.98;;
40284;SDS011;25997;50.214;19.354;2024-02-04T07:47:36;9.18;;;6.43;;
40284;SDS011;25997;50.214;19.354;2024-02-04T07:50:38;8.73;;;6.88;;
40284;SDS011;25997;50.214;19.354;2024-02-04T07:53:41;11.20;;;8.88;;
40284;SDS011;25997;50.214;19.354;2024-02-04T07:56:43;11.27;;;7.75;;
40284;SDS011;25997;50.214;19.354;2024-02-04T07:59:45;14.98;;;8.85;;
40284;SDS011;25997;50.214;19.354;2024-02-04T08:02:49;17.75;;;12.00;;
40284;SDS011;25997;50.214;19.354;2024-02-04T08:05:52;11.32;;;5.25;;
40284;SDS011;25997;50.214;19.354;2024-02-04T08:08:54;12.85;;;7.20;;
40284;SDS011;25997;50.214;19.354;2024-02-04T08:11:56;8.90;;;4.63;;
40284;SDS011;25997;50.214;19.354;2024-02-04T08:14:59;4.97;;;3.40;;
40284;SDS011;25997;50.214;19.354;2024-02-04T08:18:03;10.88;;;6.10;;
40284;SDS011;25997;50.214;19.354;2024-02-04T08:21:05;8.38;;;4.65;;
40284;SDS011;25997;50.214;19.354;2024-02-04T08:24:08;7.10;;;5.03;;
40284;SDS011;25997;50.214;19.354;2024-02-04T08:27:10;11.15;;;6.35;;
40284;SDS011;25997;50.214;19.354;2024-02-04T08:30:13;10.20;;;5.75;;
40284;SDS011;25997;50.214;19.354;2024-02-04T08:33:18;10.13;;;8.70;;
40284;SDS011;25997;50.214;19.354;2024-02-04T08:36:20;11.18;;;7.10;;
40284;SDS011;25997;50.214;19.354;2024-02-04T08:39:23;10.80;;;6.70;;
40284;SDS011;25997;50.214;19.354;2024-02-04T08:42:26;9.77;;;6.72;;
40284;SDS011;25997;50.214;19.354;2024-02-04T08:45:28;12.38;;;6.70;;
40284;SDS011;25997;50.214;19.354;2024-02-04T08:48:32;16.70;;;8.52;;
40284;SDS011;25997;50.214;19.354;2024-02-04T08:51:34;13.15;;;7.90;;
40284;SDS011;25997;50.214;19.354;2024-02-04T08:54:37;9.38;;;5.55;;
40284;SDS011;25997;50.214;19.354;2024-02-04T08:57:39;10.07;;;4.78;;
40284;SDS011;25997;50.214;19.354;2024-02-04T09:00:42;8.77;;;4.75;;
40284;SDS011;25997;50.214;19.354;2024-02-04T09:03:45;12.75;;;4.65;;
40284;SDS011;25997;50.214;19.354;2024-02-04T09:06:48;8.65;;;4.28;;
40284;SDS011;25997;50.214;19.354;2024-02-04T09:09:50;8.70;;;5.38;;
40284;SDS011;25997;50.214;19.354;2024-02-04T09:12:52;9.10;;;6.72;;
40284;SDS011;25997;50.214;19.354;2024-02-04T09:15:55;10.02;;;5.18;;
40284;SDS011;25997;50.214;19.354;2024-02-04T09:18:59;8.50;;;4.03;;
40284;SDS011;25997;50.214;19.354;2024-02-04T09:22:01;10.27;;;4.50;;
40284;SDS011;25997;50.214;19.354;2024-02-04T09:25:04;12.15;;;7.47;;
40284;SDS011;25997;50.214;19.354;2024-02-04T09:28:07;10.77;;;6.13;;
40284;SDS011;25997;50.214;19.354;2024-02-04T09:31:09;8.18;;;5.88;;
40284;SDS011;25997;50.214;19.354;2024-02-04T09:34:13;14.32;;;6.72;;
40284;SDS011;25997;50.214;19.354;2024-02-04T09:37:16;12.40;;;7.20;;
40284;SDS011;25997;50.214;19.354;2024-02-04T09:40:18;11.85;;;7.20;;
40284;SDS011;25997;50.214;19.354;2024-02-04T09:43:20;7.90;;;4.85;;
40284;SDS011;25997;50.214;19.354;2024-02-04T09:46:23;10.82;;;6.65;;
40284;SDS011;25997;50.214;19.354;2024-02-04T09:49:28;15.43;;;7.15;;
40284;SDS011;25997;50.214;19.354;2024-02-04T09:52:32;9.07;;;5.70;;
40284;SDS011;25997;50.214;19.354;2024-02-04T09:55:36;7.60;;;4.85;;
40284;SDS011;25997;50.214;19.354;2024-02-04T09:58:41;10.77;;;8.65;;
40284;SDS011;25997;50.214;19.354;2024-02-04T10:01:44;10.02;;;7.40;;
40284;SDS011;25997;50.214;19.354;2024-02-04T10:04:48;7.80;;;4.55;;
40284;SDS011;25997;50.214;19.354;2024-02-04T10:07:51;7.63;;;5.75;;
40284;SDS011;25997;50.214;19.354;2024-02-04T10:10:53;9.35;;;7.63;;
40284;SDS011;25997;50.214;19.354;2024-02-04T10:13:55;14.38;;;12.88;;
40284;SDS011;25997;50.214;19.354;2024-02-04T10:16:58;7.55;;;4.57;;
40284;SDS011;25997;50.214;19.354;2024-02-04T10:20:02;7.75;;;4.00;;
40284;SDS011;25997;50.214;19.354;2024-02-04T10:23:05;7.65;;;3.83;;
40284;SDS011;25997;50.214;19.354;2024-02-04T10:26:07;9.15;;;5.15;;
40284;SDS011;25997;50.214;19.354;2024-02-04T10:29:09;11.82;;;8.73;;
40284;SDS011;25997;50.214;19.354;2024-02-04T10:32:12;10.90;;;7.22;;
40284;SDS011;25997;50.214;19.354;2024-02-04T10:35:16;8.15;;;4.55;;
40284;SDS011;25997;50.214;19.354;2024-02-04T10:38:19;11.77;;;9.75;;
40284;SDS011;25997;50.214;19.354;2024-02-04T10:41:22;8.20;;;4.03;;
40284;SDS011;25997;50.214;19.354;2024-02-04T10:44:25;13.90;;;8.48;;
40284;SDS011;25997;50.214;19.354;2024-02-04T10:47:31;7.18;;;3.40;;
40284;SDS011;25997;50.214;19.354;2024-02-04T10:50:39;11.35;;;5.30;;
40284;SDS011;25997;50.214;19.354;2024-02-04T10:53:43;7.70;;;4.32;;
40284;SDS011;25997;50.214;19.354;2024-02-04T10:56:46;9.90;;;4.47;;
40284;SDS011;25997;50.214;19.354;2024-02-04T11:02:58;9.43;;;4.70;;
40284;SDS011;25997;50.214;19.354;2024-02-04T11:06:03;8.80;;;5.13;;
40284;SDS011;25997;50.214;19.354;2024-02-04T11:09:06;6.55;;;4.57;;
40284;SDS011;25997;50.214;19.354;2024-02-04T11:12:11;10.38;;;5.03;;
40284;SDS011;25997;50.214;19.354;2024-02-04T11:15:16;6.97;;;4.60;;
40284;SDS011;25997;50.214;19.354;2024-02-04T11:18:25;7.18;;;4.38;;
40284;SDS011;25997;50.214;19.354;2024-02-04T11:22:06;6.63;;;4.30;;
40284;SDS011;25997;50.214;19.354;2024-02-04T11:25:28;8.60;;;5.20;;
40284;SDS011;25997;50.214;19.354;2024-02-04T11:28:43;8.95;;;5.60;;
40284;SDS011;25997;50.214;19.354;2024-02-04T11:31:46;11.55;;;6.38;;
40284;SDS011;25997;50.214;19.354;2024-02-04T11:34:48;11.15;;;5.38;;
40284;SDS011;25997;50.214;19.354;2024-02-04T11:37:54;8.70;;;5.57;;
40284;SDS011;25997;50.214;19.354;2024-02-04T11:40:57;6.43;;;4.05;;
40284;SDS011;25997;50.214;19.354;2024-02-04T11:43:59;12.00;;;6.45;;
40284;SDS011;25997;50.214;19.354;2024-02-04T11:47:07;8.43;;;5.57;;
40284;SDS011;25997;50.214;19.354;2024-02-04T11:50:10;14.02;;;11.05;;
40284;SDS011;25997;50.214;19.354;2024-02-04T11:53:13;12.77;;;9.50;;
40284;SDS011;25997;50.214;19.354;2024-02-04T11:56:17;11.88;;;7.18;;
40284;SDS011;25997;50.214;19.354;2024-02-04T11:59:20;14.57;;;9.55;;
40284;SDS011;25997;50.214;19.354;2024-02-04T12:02:24;9.57;;;7.05;;
40284;SDS011;25997;50.214;19.354;2024-02-04T12:05:26;11.43;;;8.32;;
40284;SDS011;25997;50.214;19.354;2024-02-04T12:08:31;14.57;;;9.20;;
40284;SDS011;25997;50.214;19.354;2024-02-04T12:11:35;15.20;;;8.23;;
40284;SDS011;25997;50.214;19.354;2024-02-04T12:14:38;17.23;;;10.65;;
40284;SDS011;25997;50.214;19.354;2024-02-04T12:17:41;7.72;;;6.78;;
40284;SDS011;25997;50.214;19.354;2024-02-04T12:20:45;13.82;;;10.65;;
40284;SDS011;25997;50.214;19.354;2024-02-04T12:23:49;18.45;;;16.55;;
40284;SDS011;25997;50.214;19.354;2024-02-04T12:26:52;13.38;;;10.57;;
40284;SDS011;25997;50.214;19.354;2024-02-04T12:29:54;17.65;;;13.73;;
40284;SDS011;25997;50.214;19.354;2024-02-04T12:32:57;23.90;;;20.08;;
40284;SDS011;25997;50.214;19.354;2024-02-04T12:36:00;19.02;;;16.58;;
40284;SDS011;25997;50.214;19.354;2024-02-04T12:39:04;54.72;;;32.30;;
40284;SDS011;25997;50.214;19.354;2024-02-04T12:42:10;85.60;;;54.90;;
40284;SDS011;25997;50.214;19.354;2024-02-04T12:45:14;91.63;;;53.58;;
40284;SDS011;25997;50.214;19.354;2024-02-04T12:48:16;63.28;;;41.80;;
40284;SDS011;25997;50.214;19.354;2024-02-04T12:51:24;69.50;;;49.35;;
40284;SDS011;25997;50.214;19.354;2024-02-04T12:54:28;130.30;;;84.35;;
40284;SDS011;25997;50.214;19.354;2024-02-04T12:57:31;85.53;;;52.67;;
40284;SDS011;25997;50.214;19.354;2024-02-04T13:00:34;64.72;;;47.33;;
40284;SDS011;25997;50.214;19.354;2024-02-04T13:03:37;39.83;;;34.28;;
40284;SDS011;25997;50.214;19.354;2024-02-04T13:06:39;45.50;;;33.80;;
40284;SDS011;25997;50.214;19.354;2024-02-04T13:09:43;25.77;;;18.15;;
40284;SDS011;25997;50.214;19.354;2024-02-04T13:12:46;16.00;;;12.98;;
40284;SDS011;25997;50.214;19.354;2024-02-04T13:15:59;65.43;;;37.13;;
40284;SDS011;25997;50.214;19.354;2024-02-04T13:19:01;115.22;;;65.80;;
40284;SDS011;25997;50.214;19.354;2024-02-04T13:22:04;57.83;;;35.15;;
40284;SDS011;25997;50.214;19.354;2024-02-04T13:25:08;31.55;;;24.92;;
40284;SDS011;25997;50.214;19.354;2024-02-04T13:28:11;45.13;;;29.55;;
40284;SDS011;25997;50.214;19.354;2024-02-04T13:31:14;37.38;;;27.38;;
40284;SDS011;25997;50.214;19.354;2024-02-04T13:34:16;23.13;;;17.92;;
40284;SDS011;25997;50.214;19.354;2024-02-04T13:37:19;26.30;;;22.55;;
40284;SDS011;25997;50.214;19.354;2024-02-04T13:40:23;12.93;;;11.25;;
40284;SDS011;25997;50.214;19.354;2024-02-04T13:43:25;14.90;;;12.90;;
40284;SDS011;25997;50.214;19.354;2024-02-04T13:46:28;22.88;;;18.98;;
40284;SDS011;25997;50.214;19.354;2024-02-04T13:49:30;13.43;;;12.00;;
40284;SDS011;25997;50.214;19.354;2024-02-04T13:52:33;31.55;;;23.35;;
40284;SDS011;25997;50.214;19.354;2024-02-04T13:55:36;69.15;;;62.28;;
40284;SDS011;25997;50.214;19.354;2024-02-04T13:58:39;27.25;;;24.63;;
40284;SDS011;25997;50.214;19.354;2024-02-04T14:01:42;13.82;;;11.32;;
40284;SDS011;25997;50.214;19.354;2024-02-04T14:04:44;14.60;;;11.30;;
40284;SDS011;25997;50.214;19.354;2024-02-04T14:07:46;33.47;;;23.88;;
40284;SDS011;25997;50.214;19.354;2024-02-04T14:10:50;16.42;;;11.90;;
40284;SDS011;25997;50.214;19.354;2024-02-04T14:13:53;17.17;;;11.15;;
40284;SDS011;25997;50.214;19.354;2024-02-04T14:16:55;12.32;;;8.80;;
40284;SDS011;25997;50.214;19.354;2024-02-04T14:19:58;11.07;;;8.23;;
40284;SDS011;25997;50.214;19.354;2024-02-04T14:23:02;36.55;;;32.67;;
40284;SDS011;25997;50.214;19.354;2024-02-04T14:26:20;10.55;;;8.80;;
40284;SDS011;25997;50.214;19.354;2024-02-04T14:29:24;9.98;;;7.97;;
40284;SDS011;25997;50.214;19.354;2024-02-04T14:32:32;13.90;;;10.10;;
40284;SDS011;25997;50.214;19.354;2024-02-04T14:35:35;19.38;;;14.30;;
40284;SDS011;25997;50.214;19.354;2024-02-04T14:38:37;52.90;;;41.72;;
40284;SDS011;25997;50.214;19.354;2024-02-04T14:41:41;19.58;;;17.65;;
40284;SDS011;25997;50.214;19.354;2024-02-04T14:44:44;20.13;;;18.17;;
40284;SDS011;25997;50.214;19.354;2024-02-04T14:47:47;12.45;;;10.75;;
40284;SDS011;25997;50.214;19.354;2024-02-04T14:50:49;16.20;;;14.60;;
40284;SDS011;25997;50.214;19.354;2024-02-04T14:53:52;14.77;;;13.27;;
40284;SDS011;25997;50.214;19.354;2024-02-04T14:56:56;15.82;;;14.15;;
40284;SDS011;25997;50.214;19.354;2024-02-04T14:59:58;10.65;;;8.85;;
40284;SDS011;25997;50.214;19.354;2024-02-04T15:03:00;12.23;;;10.35;;
40284;SDS011;25997;50.214;19.354;2024-02-04T15:06:03;13.23;;;11.80;;
40284;SDS011;25997;50.214;19.354;2024-02-04T15:09:06;12.43;;;9.68;;
40284;SDS011;25997;50.214;19.354;2024-02-04T15:12:10;10.75;;;9.05;;
40284;SDS011;25997;50.214;19.354;2024-02-04T15:15:15;14.25;;;11.00;;
40284;SDS011;25997;50.214;19.354;2024-02-04T15:18:18;12.05;;;9.65;;
40284;SDS011;25997;50.214;19.354;2024-02-04T15:21:21;12.00;;;9.75;;
40284;SDS011;25997;50.214;19.354;2024-02-04T15:24:25;11.05;;;7.68;;
40284;SDS011;25997;50.214;19.354;2024-02-04T15:27:29;7.55;;;5.90;;
40284;SDS011;25997;50.214;19.354;2024-02-04T15:30:33;6.13;;;5.53;;
40284;SDS011;25997;50.214;19.354;2024-02-04T15:33:36;9.30;;;7.50;;
40284;SDS011;25997;50.214;19.354;2024-02-04T15:36:40;19.27;;;17.27;;
40284;SDS011;25997;50.214;19.354;2024-02-04T15:39:43;12.88;;;10.02;;
40284;SDS011;25997;50.214;19.354;2024-02-04T15:42:46;10.35;;;6.97;;
40284;SDS011;25997;50.214;19.354;2024-02-04T15:45:49;5.15;;;3.38;;
40284;SDS011;25997;50.214;19.354;2024-02-04T15:48:52;10.77;;;7.38;;
40284;SDS011;25997;50.214;19.354;2024-02-04T15:51:55;7.43;;;5.97;;
40284;SDS011;25997;50.214;19.354;2024-02-04T15:54:58;35.90;;;27.55;;
40284;SDS011;25997;50.214;19.354;2024-02-04T15:58:03;13.82;;;12.30;;
40284;SDS011;25997;50.214;19.354;2024-02-04T16:01:08;15.63;;;14.13;;
40284;SDS011;25997;50.214;19.354;2024-02-04T16:04:13;41.97;;;32.22;;
40284;SDS011;25997;50.214;19.354;2024-02-04T16:07:18;43.92;;;39.22;;
40284;SDS011;25997;50.214;19.354;2024-02-04T16:10:23;20.00;;;18.08;;
40284;SDS011;25997;50.214;19.354;2024-02-04T16:13:27;14.43;;;13.02;;
40284;SDS011;25997;50.214;19.354;2024-02-04T16:16:34;12.60;;;11.40;;
40284;SDS011;25997;50.214;19.354;2024-02-04T16:19:38;17.25;;;14.95;;
40284;SDS011;25997;50.214;19.354;2024-02-04T16:22:42;27.55;;;24.52;;
40284;SDS011;25997;50.214;19.354;2024-02-04T16:25:45;22.42;;;20.00;;
40284;SDS011;25997;50.214;19.354;2024-02-04T16:28:49;11.88;;;10.63;;
40284;SDS011;25997;50.214;19.354;2024-02-04T16:31:53;10.10;;;9.07;;
40284;SDS011;25997;50.214;19.354;2024-02-04T16:34:55;13.40;;;11.18;;
40284;SDS011;25997;50.214;19.354;2024-02-04T16:37:58;14.30;;;12.90;;
40284;SDS011;25997;50.214;19.354;2024-02-04T16:41:01;11.48;;;10.38;;
40284;SDS011;25997;50.214;19.354;2024-02-04T16:44:05;8.38;;;7.50;;
40284;SDS011;25997;50.214;19.354;2024-02-04T16:47:08;9.65;;;8.23;;
40284;SDS011;25997;50.214;19.354;2024-02-04T16:50:10;33.60;;;30.17;;
40284;SDS011;25997;50.214;19.354;2024-02-04T16:53:13;9.15;;;7.30;;
40284;SDS011;25997;50.214;19.354;2024-02-04T16:56:19;6.65;;;5.80;;
40284;SDS011;25997;50.214;19.354;2024-02-04T16:59:25;6.82;;;5.38;;
40284;SDS011;25997;50.214;19.354;2024-02-04T17:02:27;7.75;;;5.82;;
40284;SDS011;25997;50.214;19.354;2024-02-04T17:05:30;8.30;;;6.53;;
40284;SDS011;25997;50.214;19.354;2024-02-04T17:08:33;7.72;;;6.00;;
40284;SDS011;25997;50.214;19.354;2024-02-04T17:11:36;8.43;;;6.78;;
40284;SDS011;25997;50.214;19.354;2024-02-04T17:14:41;15.50;;;10.73;;
40284;SDS011;25997;50.214;19.354;2024-02-04T17:17:46;7.40;;;5.38;;
40284;SDS011;25997;50.214;19.354;2024-02-04T17:20:55;8.05;;;6.50;;
40284;SDS011;25997;50.214;19.354;2024-02-04T17:24:03;8.00;;;5.88;;
40284;SDS011;25997;50.214;19.354;2024-02-04T17:27:13;7.35;;;6.13;;
40284;SDS011;25997;50.214;19.354;2024-02-04T17:30:17;7.28;;;5.43;;
40284;SDS011;25997;50.214;19.354;2024-02-04T17:33:20;9.68;;;8.15;;
40284;SDS011;25997;50.214;19.354;2024-02-04T17:36:23;6.90;;;5.55;;
40284;SDS011;25997;50.214;19.354;2024-02-04T17:39:25;6.95;;;6.13;;
40284;SDS011;25997;50.214;19.354;2024-02-04T17:42:28;9.93;;;6.43;;
40284;SDS011;25997;50.214;19.354;2024-02-04T17:45:32;9.75;;;7.63;;
40284;SDS011;25997;50.214;19.354;2024-02-04T17:48:34;8.73;;;7.10;;
40284;SDS011;25997;50.214;19.354;2024-02-04T17:51:37;9.02;;;7.20;;
40284;SDS011;25997;50.214;19.354;2024-02-04T17:54:39;8.93;;;7.28;;
40284;SDS011;25997;50.214;19.354;2024-02-04T17:57:42;14.23;;;12.88;;